Time;durP1;ratioP1;P1;durP2;ratioP2;P2;SDS_P1;SDS_P2;PMS_P1;PMS_P2;Temp;Humidity;BMP_temperature;BMP_pressure;BME280_temperature;BME280_humidity;BME280_pressure;Samples;Min_cycle;Max_cycle;Signal;HPM_P1;HPM_P2
2021/08/16 00:00:45;;;;;;;8.00;5.30;;;27.80;58.00;;;;;;4983474;28;20206;-48
2021/08/16 00:03:11;;;;;;;6.37;5.00;;;27.80;58.10;;;;;;4981411;28;20248;-47
2021/08/16 00:05:36;;;;;;;5.90;5.40;;;27.70;58.10;;;;;;4982478;28;20194;-47
2021/08/16 00:08:06;;;;;;;5.97;5.07;;;27.70;58.20;;;;;;4982555;28;20187;-47
2021/08/16 00:10:32;;;;;;;5.53;5.03;;;27.70;58.20;;;;;;4982422;28;20692;-46
2021/08/16 00:12:57;;;;;;;5.87;5.10;;;27.70;58.30;;;;;;4982481;28;20486;-50
2021/08/16 00:15:23;;;;;;;6.10;5.00;;;27.70;58.30;;;;;;4982212;28;20230;-51
2021/08/16 00:17:48;;;;;;;7.23;5.60;;;27.70;58.30;;;;;;4976479;28;20218;-47
2021/08/16 00:20:14;;;;;;;8.27;4.77;;;27.60;58.30;;;;;;4985418;28;20195;-47
2021/08/16 00:22:40;;;;;;;6.00;4.80;;;27.60;58.30;;;;;;4982128;28;20200;-50
2021/08/16 00:25:06;;;;;;;5.17;4.67;;;27.60;58.30;;;;;;4983702;28;20192;-51
2021/08/16 00:27:31;;;;;;;6.13;5.37;;;27.60;58.60;;;;;;4979853;28;20568;-48
2021/08/16 00:29:57;;;;;;;5.20;4.80;;;27.60;58.50;;;;;;4983335;28;20441;-49
2021/08/16 00:32:23;;;;;;;5.87;4.90;;;27.60;58.40;;;;;;4981667;28;20187;-47
2021/08/16 00:34:48;;;;;;;6.40;4.60;;;27.60;58.50;;;;;;4985813;28;20222;-48
2021/08/16 00:37:14;;;;;;;5.60;5.10;;;27.60;58.50;;;;;;4982038;28;20257;-50
2021/08/16 00:39:40;;;;;;;5.83;5.20;;;27.70;58.40;;;;;;4984258;28;20573;-47
2021/08/16 00:42:09;;;;;;;5.07;4.67;;;27.60;58.30;;;;;;4982328;28;20222;-46
2021/08/16 00:44:35;;;;;;;5.57;5.07;;;27.70;58.40;;;;;;4979812;28;20218;-46
2021/08/16 00:47:02;;;;;;;6.50;5.57;;;27.70;58.20;;;;;;4978434;28;20451;-51
2021/08/16 00:49:27;;;;;;;5.53;4.60;;;27.70;58.10;;;;;;4980680;28;20450;-52
2021/08/16 00:51:53;;;;;;;6.47;5.00;;;27.70;58.30;;;;;;4984917;28;20492;-49
2021/08/16 00:54:19;;;;;;;7.80;5.40;;;27.70;58.20;;;;;;4980962;28;20238;-48
2021/08/16 00:56:44;;;;;;;6.97;6.30;;;27.70;58.30;;;;;;4982853;28;20205;-51
2021/08/16 00:59:12;;;;;;;9.47;6.07;;;27.60;58.50;;;;;;4979334;28;20557;-50
2021/08/16 01:01:38;;;;;;;5.63;5.10;;;27.60;58.10;;;;;;4979533;28;20921;-47
2021/08/16 01:04:05;;;;;;;5.70;4.33;;;27.40;58.70;;;;;;4981112;28;20445;-48
2021/08/16 01:06:30;;;;;;;6.37;5.87;;;27.30;58.70;;;;;;4975158;28;20493;-48
2021/08/16 01:08:56;;;;;;;5.70;5.10;;;27.30;58.70;;;;;;4982956;28;20504;-47
2021/08/16 01:11:22;;;;;;;10.33;6.60;;;27.20;59.30;;;;;;4982766;28;20301;-51
2021/08/16 01:13:49;;;;;;;8.13;5.03;;;27.10;59.20;;;;;;4981512;28;20234;-50
2021/08/16 01:16:16;;;;;;;5.30;4.80;;;27.00;59.80;;;;;;4982335;28;20252;-47
2021/08/16 01:18:42;;;;;;;6.40;5.80;;;27.00;59.90;;;;;;4980417;28;20816;-50
2021/08/16 01:21:10;;;;;;;7.20;5.70;;;27.00;59.90;;;;;;4981448;28;20442;-51
2021/08/16 01:23:36;;;;;;;7.80;5.53;;;27.00;59.90;;;;;;4982088;28;20317;-51
2021/08/16 01:26:03;;;;;;;6.93;6.30;;;27.00;59.70;;;;;;4980665;28;20469;-49
2021/08/16 01:28:29;;;;;;;7.00;5.53;;;26.90;59.70;;;;;;4980478;28;20446;-46
2021/08/16 01:30:57;;;;;;;6.90;5.90;;;27.00;59.90;;;;;;4984044;28;20442;-50
2021/08/16 01:33:24;;;;;;;5.70;5.10;;;26.90;60.00;;;;;;4987488;28;20190;-50
2021/08/16 01:35:49;;;;;;;6.20;5.60;;;26.90;60.20;;;;;;4984101;28;20521;-47
2021/08/16 01:38:19;;;;;;;6.90;6.10;;;27.00;60.00;;;;;;4984228;28;20532;-47
2021/08/16 01:40:45;;;;;;;7.50;5.60;;;27.10;59.70;;;;;;4984587;28;20214;-49
2021/08/16 01:43:10;;;;;;;7.83;6.13;;;27.00;59.70;;;;;;4989141;28;21326;-51
2021/08/16 01:45:36;;;;;;;8.47;6.10;;;26.70;60.80;;;;;;4986594;28;20552;-48
2021/08/16 01:48:02;;;;;;;6.67;5.17;;;26.60;61.00;;;;;;4986274;28;20202;-49
2021/08/16 01:50:28;;;;;;;5.77;5.13;;;26.60;61.30;;;;;;4985148;28;20194;-51
2021/08/16 01:52:53;;;;;;;7.17;6.50;;;26.70;61.10;;;;;;4987161;28;20650;-48
2021/08/16 01:55:19;;;;;;;7.20;6.27;;;26.80;60.90;;;;;;4984661;28;22013;-50
2021/08/16 01:57:44;;;;;;;7.40;6.70;;;26.90;60.40;;;;;;4982715;28;20195;-48
2021/08/16 02:00:11;;;;;;;7.83;6.70;;;26.90;60.30;;;;;;4980727;28;20203;-50
2021/08/16 02:02:36;;;;;;;6.00;5.23;;;26.90;60.20;;;;;;4981134;28;20627;-49
2021/08/16 02:05:02;;;;;;;6.20;5.60;;;27.00;60.20;;;;;;4984527;28;20445;-47
2021/08/16 02:07:27;;;;;;;6.63;6.03;;;27.10;60.10;;;;;;4983786;28;20675;-50
2021/08/16 02:09:53;;;;;;;5.53;5.13;;;27.10;60.00;;;;;;4985733;28;20197;-48
2021/08/16 02:12:19;;;;;;;8.23;6.07;;;27.10;60.00;;;;;;4989489;28;20308;-50
2021/08/16 02:14:44;;;;;;;8.37;5.97;;;27.10;59.70;;;;;;4992575;28;20313;-51
2021/08/16 02:17:10;;;;;;;7.53;6.27;;;27.20;59.60;;;;;;4975214;28;20210;-51
2021/08/16 02:19:35;;;;;;;7.23;6.63;;;27.30;59.60;;;;;;4981329;28;22019;-47
2021/08/16 02:22:01;;;;;;;6.50;5.90;;;27.30;59.40;;;;;;4985616;28;20206;-50
2021/08/16 02:24:27;;;;;;;7.40;6.70;;;27.30;59.40;;;;;;4984719;28;20213;-52
2021/08/16 02:26:52;;;;;;;6.23;5.67;;;27.40;59.40;;;;;;4982371;28;20222;-49
2021/08/16 02:29:18;;;;;;;9.63;6.40;;;27.40;59.40;;;;;;4984296;28;20651;-50
2021/08/16 02:31:43;;;;;;;12.17;7.23;;;27.30;59.20;;;;;;4983997;28;20269;-50
2021/08/16 02:34:09;;;;;;;6.73;6.03;;;27.30;59.50;;;;;;4982848;28;20577;-52
2021/08/16 02:36:35;;;;;;;8.80;6.80;;;27.10;60.10;;;;;;4986979;28;20197;-49
2021/08/16 02:39:00;;;;;;;9.03;8.10;;;26.80;61.00;;;;;;4985243;28;20214;-50
2021/08/16 02:41:26;;;;;;;7.20;6.50;;;26.40;63.10;;;;;;4987236;28;21116;-51
2021/08/16 02:43:52;;;;;;;8.53;7.70;;;26.20;64.00;;;;;;4985968;28;20690;-50
2021/08/16 02:46:19;;;;;;;12.03;7.40;;;26.30;63.30;;;;;;4984520;28;20274;-51
2021/08/16 02:48:45;;;;;;;10.67;8.10;;;26.60;62.60;;;;;;4982502;28;20193;-49
2021/08/16 02:51:11;;;;;;;8.50;7.30;;;26.60;62.80;;;;;;4982630;28;20454;-50
2021/08/16 02:53:37;;;;;;;8.60;7.80;;;26.60;63.30;;;;;;4985565;28;20962;-51
2021/08/16 02:56:03;;;;;;;8.77;7.97;;;26.50;63.30;;;;;;4983728;28;20449;-50
2021/08/16 02:58:28;;;;;;;8.60;7.40;;;26.40;63.20;;;;;;4981263;28;20203;-51
2021/08/16 03:00:54;;;;;;;9.23;8.40;;;26.30;63.80;;;;;;4981506;28;20442;-51
2021/08/16 03:03:20;;;;;;;10.20;7.53;;;26.30;63.90;;;;;;4984595;28;20202;-52
2021/08/16 03:05:45;;;;;;;12.50;7.40;;;26.30;63.40;;;;;;4983670;28;20205;-47
2021/08/16 03:08:11;;;;;;;9.23;8.33;;;26.30;63.70;;;;;;4980460;28;20213;-50
2021/08/16 03:10:37;;;;;;;9.50;8.30;;;26.40;63.60;;;;;;4983911;28;20198;-50
2021/08/16 03:13:02;;;;;;;7.77;6.97;;;26.40;63.00;;;;;;4982766;28;20242;-50
2021/08/16 03:15:28;;;;;;;7.27;6.60;;;26.50;61.90;;;;;;4982959;28;20317;-47
2021/08/16 03:17:55;;;;;;;8.53;7.63;;;26.40;61.60;;;;;;4982221;28;20639;-47
2021/08/16 03:20:21;;;;;;;7.97;7.23;;;26.40;61.70;;;;;;4984340;28;20253;-47
2021/08/16 03:22:46;;;;;;;7.30;6.70;;;26.40;61.70;;;;;;4985964;28;20449;-48
2021/08/16 03:25:12;;;;;;;6.97;5.83;;;26.40;61.30;;;;;;4983165;28;20264;-46
2021/08/16 03:27:38;;;;;;;7.17;6.50;;;26.60;61.00;;;;;;4982904;28;20679;-47
2021/08/16 03:30:06;;;;;;;7.13;6.20;;;26.70;61.10;;;;;;4982113;28;20441;-47
2021/08/16 03:32:32;;;;;;;9.93;6.40;;;26.90;60.30;;;;;;4984370;28;20954;-47
2021/08/16 03:34:58;;;;;;;6.63;5.80;;;27.00;59.60;;;;;;4982325;28;20852;-48
2021/08/16 03:37:24;;;;;;;7.57;6.50;;;27.10;59.50;;;;;;4983868;28;20438;-46
2021/08/16 03:39:49;;;;;;;6.90;5.50;;;27.10;59.30;;;;;;4982561;28;20209;-49
2021/08/16 03:42:15;;;;;;;6.00;5.40;;;27.10;59.60;;;;;;4983054;28;20277;-46
2021/08/16 03:44:40;;;;;;;7.47;6.20;;;27.20;59.00;;;;;;4983857;28;20194;-46
2021/08/16 03:47:06;;;;;;;6.57;6.00;;;27.20;59.10;;;;;;4983737;28;20198;-47
2021/08/16 03:49:33;;;;;;;6.77;5.80;;;27.20;59.00;;;;;;4983234;28;20210;-47
2021/08/16 03:51:59;;;;;;;5.80;5.20;;;27.30;58.80;;;;;;4982117;28;20206;-50
2021/08/16 03:54:24;;;;;;;6.40;5.90;;;27.40;58.90;;;;;;4978890;28;20485;-47
2021/08/16 03:56:50;;;;;;;7.63;6.73;;;27.40;58.80;;;;;;4981970;28;20281;-48
2021/08/16 03:59:16;;;;;;;6.37;5.70;;;27.40;58.60;;;;;;4983441;28;20199;-47
2021/08/16 04:01:41;;;;;;;7.60;6.77;;;27.40;58.60;;;;;;4983407;28;20202;-46
2021/08/16 04:04:08;;;;;;;7.47;6.77;;;27.40;58.50;;;;;;4982854;28;20190;-49
2021/08/16 04:06:34;;;;;;;7.23;5.40;;;27.50;58.40;;;;;;4983407;28;20789;-47
2021/08/16 04:08:59;;;;;;;6.63;5.70;;;27.50;58.30;;;;;;4983267;28;20556;-47
2021/08/16 04:11:25;;;;;;;10.00;5.87;;;27.60;58.30;;;;;;4986307;28;20242;-50
2021/08/16 04:13:50;;;;;;;7.10;6.43;;;27.60;58.10;;;;;;4983644;28;20218;-46
2021/08/16 04:16:16;;;;;;;6.03;5.23;;;27.50;58.20;;;;;;4976004;28;20210;-50
2021/08/16 04:18:41;;;;;;;6.63;6.03;;;27.50;58.10;;;;;;4978229;28;20199;-46
2021/08/16 04:21:07;;;;;;;6.77;6.17;;;27.60;58.10;;;;;;4978260;28;20253;-47
2021/08/16 04:23:33;;;;;;;9.60;7.07;;;27.60;58.00;;;;;;4978805;28;20201;-47
2021/08/16 04:25:58;;;;;;;10.37;7.30;;;27.50;58.00;;;;;;4979885;28;20194;-47
2021/08/16 04:28:24;;;;;;;10.07;6.80;;;27.40;58.30;;;;;;4981215;28;21333;-47
2021/08/16 04:30:49;;;;;;;8.17;7.40;;;27.40;58.40;;;;;;4978777;28;20221;-46
2021/08/16 04:33:15;;;;;;;8.10;7.30;;;27.30;58.40;;;;;;4978723;28;20199;-48
2021/08/16 04:35:41;;;;;;;11.70;7.83;;;27.30;58.60;;;;;;4980302;28;20225;-46
2021/08/16 04:38:06;;;;;;;9.50;8.27;;;27.20;59.00;;;;;;4981487;28;20254;-47
2021/08/16 04:40:32;;;;;;;10.37;8.80;;;27.10;59.40;;;;;;4980391;28;20792;-49
2021/08/16 04:42:58;;;;;;;10.90;8.97;;;26.90;60.00;;;;;;4978648;28;20285;-49
2021/08/16 04:45:23;;;;;;;9.63;8.77;;;26.80;60.90;;;;;;4979416;28;20210;-50
2021/08/16 04:47:49;;;;;;;11.83;8.33;;;26.70;61.60;;;;;;4977875;28;20701;-47
2021/08/16 04:50:16;;;;;;;9.17;8.30;;;26.50;62.30;;;;;;4982767;28;20198;-47
2021/08/16 04:52:43;;;;;;;9.27;8.27;;;26.30;62.80;;;;;;4983621;28;20195;-49
2021/08/16 04:55:08;;;;;;;9.00;8.20;;;26.20;62.90;;;;;;4980911;28;20493;-48
2021/08/16 04:57:36;;;;;;;9.30;7.40;;;26.00;63.50;;;;;;4980687;28;20441;-48
2021/08/16 05:00:10;;;;;;;10.30;8.17;;;25.80;63.70;;;;;;4978821;28;20199;-47
2021/08/16 05:02:36;;;;;;;9.13;8.30;;;25.80;63.30;;;;;;4987709;28;20551;-47
2021/08/16 05:05:11;;;;;;;13.93;8.87;;;25.60;63.60;;;;;;4984273;28;20445;-47
2021/08/16 05:07:37;;;;;;;7.37;6.67;;;25.50;64.20;;;;;;4981690;28;20437;-47
2021/08/16 05:10:06;;;;;;;9.70;7.80;;;25.30;64.90;;;;;;4983957;28;20453;-47
2021/08/16 05:12:32;;;;;;;8.07;7.30;;;25.40;65.00;;;;;;4985663;28;20564;-48
2021/08/16 05:14:58;;;;;;;12.77;7.50;;;25.50;64.50;;;;;;4988508;28;20579;-47
2021/08/16 05:17:23;;;;;;;10.10;8.03;;;25.60;64.40;;;;;;4986849;28;20904;-46
2021/08/16 05:19:49;;;;;;;8.70;7.90;;;25.60;64.30;;;;;;4985537;28;20197;-48
2021/08/16 05:22:15;;;;;;;8.17;7.47;;;25.60;65.10;;;;;;4984878;28;20203;-47
2021/08/16 05:24:40;;;;;;;7.90;7.20;;;25.70;63.90;;;;;;4989683;28;20203;-50
2021/08/16 05:27:06;;;;;;;10.53;8.00;;;25.80;63.80;;;;;;4984462;28;20213;-47
2021/08/16 05:29:31;;;;;;;8.80;7.67;;;25.70;64.00;;;;;;4985750;28;20677;-46
2021/08/16 05:31:57;;;;;;;8.63;7.73;;;25.70;64.10;;;;;;4985315;28;20537;-49
2021/08/16 05:34:23;;;;;;;11.83;8.30;;;25.60;63.90;;;;;;4984511;28;20816;-49
2021/08/16 05:36:48;;;;;;;8.37;6.87;;;25.60;63.70;;;;;;4983194;28;20199;-47
2021/08/16 05:39:14;;;;;;;7.40;6.70;;;25.70;63.70;;;;;;4985121;28;20694;-47
2021/08/16 05:41:40;;;;;;;9.80;6.93;;;25.90;63.30;;;;;;4990453;28;20222;-46
2021/08/16 05:44:05;;;;;;;9.27;7.30;;;25.90;62.90;;;;;;4989484;28;20246;-46
2021/08/16 05:46:31;;;;;;;11.60;7.10;;;26.00;62.80;;;;;;4994073;28;20195;-48
2021/08/16 05:48:56;;;;;;;8.30;7.27;;;26.20;61.80;;;;;;4991210;28;20271;-46
2021/08/16 05:51:22;;;;;;;10.00;7.20;;;26.20;61.50;;;;;;4984940;28;20242;-47
2021/08/16 05:53:48;;;;;;;7.63;6.83;;;26.20;61.40;;;;;;4990463;28;20199;-48
2021/08/16 05:56:13;;;;;;;9.10;8.20;;;26.20;61.20;;;;;;4990895;28;20665;-47
2021/08/16 05:58:39;;;;;;;7.60;6.77;;;26.30;61.00;;;;;;4992053;28;20206;-46
2021/08/16 06:01:04;;;;;;;7.40;6.70;;;26.20;60.80;;;;;;4988148;28;20278;-46
2021/08/16 06:03:30;;;;;;;11.67;6.93;;;26.20;60.70;;;;;;4993678;28;20198;-46
2021/08/16 06:05:56;;;;;;;8.60;6.97;;;26.20;60.60;;;;;;4994038;28;20209;-47
2021/08/16 06:08:21;;;;;;;9.57;7.33;;;26.10;60.70;;;;;;4991863;28;20442;-48
2021/08/16 06:10:47;;;;;;;8.90;6.70;;;26.10;60.60;;;;;;4988347;28;20205;-46
2021/08/16 06:13:13;;;;;;;7.87;6.20;;;25.60;60.70;;;;;;4989308;28;20226;-46
2021/08/16 06:15:39;;;;;;;9.10;6.00;;;25.50;61.20;;;;;;4994331;28;20233;-46
2021/08/16 06:18:05;;;;;;;7.57;5.63;;;25.40;61.90;;;;;;4990630;28;20273;-50
2021/08/16 06:20:30;;;;;;;7.43;6.13;;;25.30;60.90;;;;;;4987336;28;20528;-46
2021/08/16 06:22:56;;;;;;;8.53;5.93;;;25.10;61.20;;;;;;4990852;28;20206;-45
2021/08/16 06:25:22;;;;;;;7.60;6.00;;;25.00;61.40;;;;;;4990094;28;20545;-48
2021/08/16 06:27:47;;;;;;;10.67;5.83;;;25.30;60.90;;;;;;4991216;28;20193;-50
2021/08/16 06:30:13;;;;;;;9.63;5.40;;;25.30;59.80;;;;;;4987970;28;20221;-48
2021/08/16 06:32:39;;;;;;;9.07;5.03;;;25.40;59.90;;;;;;4987989;28;20206;-47
2021/08/16 06:35:06;;;;;;;5.43;4.93;;;25.40;59.60;;;;;;4987007;28;20666;-48
2021/08/16 06:37:32;;;;;;;4.90;4.40;;;25.20;59.00;;;;;;4990504;28;20538;-45
2021/08/16 06:39:57;;;;;;;8.03;5.23;;;25.00;59.00;;;;;;4980162;28;20430;-45
2021/08/16 06:42:23;;;;;;;6.63;4.70;;;25.00;58.70;;;;;;4987188;28;20257;-46
2021/08/16 06:44:49;;;;;;;7.97;5.80;;;25.00;58.80;;;;;;4977118;28;20286;-50
2021/08/16 06:47:14;;;;;;;5.57;4.63;;;25.00;59.00;;;;;;4991874;28;20226;-49
2021/08/16 06:49:40;;;;;;;5.17;4.40;;;25.10;58.70;;;;;;4992780;28;20253;-46
2021/08/16 06:52:06;;;;;;;10.03;5.07;;;25.10;58.20;;;;;;4984763;28;20245;-46
2021/08/16 06:54:32;;;;;;;6.70;4.53;;;25.00;57.90;;;;;;4992032;28;20678;-46
2021/08/16 06:57:01;;;;;;;6.17;4.83;;;25.00;58.50;;;;;;4978003;28;20427;-48
2021/08/16 06:59:27;;;;;;;9.93;4.20;;;25.00;58.70;;;;;;4992560;28;20224;-46
2021/08/16 07:01:52;;;;;;;5.53;5.03;;;25.20;58.40;;;;;;4982563;28;20438;-46
2021/08/16 07:04:18;;;;;;;9.03;5.53;;;25.20;58.00;;;;;;4987958;28;20195;-46
2021/08/16 07:06:45;;;;;;;6.80;5.23;;;25.00;57.80;;;;;;4987226;28;20705;-47
2021/08/16 07:09:10;;;;;;;8.10;4.87;;;25.00;57.50;;;;;;4984537;28;20442;-49
2021/08/16 07:11:36;;;;;;;5.30;4.80;;;24.80;58.20;;;;;;4986250;28;20500;-46
2021/08/16 07:14:01;;;;;;;7.07;4.77;;;24.70;58.50;;;;;;4986547;28;20261;-45
2021/08/16 07:16:27;;;;;;;5.60;4.13;;;24.90;59.30;;;;;;4988872;28;20269;-45
2021/08/16 07:18:53;;;;;;;5.23;4.50;;;25.10;57.00;;;;;;4987455;28;20191;-51
2021/08/16 07:21:18;;;;;;;6.10;4.67;;;25.00;56.40;;;;;;4987944;28;20249;-51
2021/08/16 07:23:44;;;;;;;7.30;4.57;;;25.00;56.70;;;;;;4982311;28;20202;-50
2021/08/16 07:26:10;;;;;;;7.13;4.27;;;25.10;57.10;;;;;;4987885;28;20203;-47
2021/08/16 07:28:36;;;;;;;6.93;3.70;;;25.20;57.00;;;;;;4990420;28;20273;-46
2021/08/16 07:31:03;;;;;;;5.67;4.47;;;25.40;56.80;;;;;;4991657;28;20249;-45
2021/08/16 07:33:29;;;;;;;4.30;3.50;;;25.60;56.30;;;;;;4990143;28;20426;-47
2021/08/16 07:35:54;;;;;;;4.57;4.17;;;25.70;55.50;;;;;;4992176;28;20482;-48
2021/08/16 07:38:20;;;;;;;5.97;3.20;;;25.60;55.90;;;;;;4992223;28;20197;-46
2021/08/16 07:40:46;;;;;;;5.63;4.00;;;25.80;55.50;;;;;;4979637;28;20191;-51
2021/08/16 07:43:11;;;;;;;4.27;3.40;;;25.90;55.00;;;;;;4992510;28;20547;-46
2021/08/16 07:45:38;;;;;;;6.50;4.00;;;25.90;55.30;;;;;;4992910;28;20226;-50
2021/08/16 07:48:04;;;;;;;4.17;3.77;;;25.90;55.70;;;;;;4991799;28;20226;-50
2021/08/16 07:50:31;;;;;;;6.00;4.60;;;26.10;56.00;;;;;;4981791;28;20521;-47
2021/08/16 07:52:57;;;;;;;5.50;4.07;;;26.10;55.40;;;;;;4992195;28;20492;-46
2021/08/16 07:55:23;;;;;;;8.30;4.30;;;26.10;55.70;;;;;;4992720;28;20576;-51
2021/08/16 07:57:49;;;;;;;4.90;4.50;;;26.10;55.30;;;;;;4983476;28;20533;-49
2021/08/16 08:00:15;;;;;;;5.00;4.10;;;26.30;55.40;;;;;;4979338;28;21004;-48
2021/08/16 08:02:49;;;;;;;6.00;4.10;;;26.30;54.90;;;;;;4988830;28;20202;-49
2021/08/16 08:05:20;;;;;;;6.90;4.90;;;26.50;55.00;;;;;;4988688;28;20434;-51
2021/08/16 08:07:46;;;;;;;7.80;4.00;;;26.50;54.00;;;;;;4990809;28;20524;-46
2021/08/16 08:10:14;;;;;;;6.50;4.20;;;26.40;53.90;;;;;;4992335;28;20511;-48
2021/08/16 08:12:41;;;;;;;5.87;3.97;;;26.40;53.90;;;;;;4989745;28;20977;-49
2021/08/16 08:15:08;;;;;;;6.63;4.10;;;26.40;53.50;;;;;;4990275;28;20497;-49
2021/08/16 08:17:34;;;;;;;6.63;3.87;;;26.30;53.30;;;;;;4989668;28;20521;-47
2021/08/16 08:20:00;;;;;;;5.03;4.00;;;26.20;53.30;;;;;;4979419;28;20433;-49
2021/08/16 08:22:26;;;;;;;9.40;3.70;;;26.30;54.20;;;;;;4987417;28;20430;-49
2021/08/16 08:24:53;;;;;;;4.37;3.63;;;26.40;53.60;;;;;;4986089;28;22096;-48
2021/08/16 08:27:19;;;;;;;8.67;4.00;;;26.60;53.00;;;;;;4987444;28;20198;-48
2021/08/16 08:29:45;;;;;;;5.17;3.77;;;26.60;53.00;;;;;;4983728;28;20443;-46
2021/08/16 08:32:10;;;;;;;4.47;3.50;;;26.60;52.60;;;;;;4979694;28;20450;-46
2021/08/16 08:34:36;;;;;;;4.93;4.00;;;26.80;52.20;;;;;;4984611;28;20226;-50
2021/08/16 08:37:03;;;;;;;4.27;3.87;;;26.80;50.50;;;;;;4985185;28;20281;-46
2021/08/16 08:39:29;;;;;;;6.10;3.87;;;26.50;50.80;;;;;;4988899;28;20233;-46
2021/08/16 08:41:57;;;;;;;4.67;4.10;;;26.40;51.30;;;;;;4991707;28;20953;-46
2021/08/16 08:44:24;;;;;;;5.47;3.83;;;26.70;51.40;;;;;;4996990;28;20747;-45
2021/08/16 08:46:50;;;;;;;4.90;4.20;;;26.80;51.40;;;;;;4989858;28;20517;-51
2021/08/16 08:49:16;;;;;;;5.97;3.90;;;27.00;50.90;;;;;;4997305;28;20536;-46
2021/08/16 08:51:42;;;;;;;5.10;4.50;;;27.10;50.10;;;;;;4994666;28;21018;-45
2021/08/16 08:54:08;;;;;;;6.83;4.50;;;27.10;49.40;;;;;;4996969;28;20253;-49
2021/08/16 08:56:35;;;;;;;6.63;4.50;;;27.20;49.40;;;;;;4989514;28;20431;-46
2021/08/16 08:59:01;;;;;;;7.40;4.40;;;27.20;50.40;;;;;;4988937;28;20450;-48
2021/08/16 09:01:27;;;;;;;4.80;3.80;;;27.20;48.80;;;;;;4986538;28;21377;-49
2021/08/16 09:03:55;;;;;;;4.50;3.90;;;27.20;49.40;;;;;;4988439;28;20222;-46
2021/08/16 09:06:35;;;;;;;5.83;4.30;;;27.40;49.40;;;;;;4992971;28;20476;-47
2021/08/16 09:09:02;;;;;;;5.03;4.37;;;27.40;48.10;;;;;;4990941;28;20539;-49
2021/08/16 09:11:28;;;;;;;5.80;4.10;;;27.20;49.00;;;;;;4992229;28;20473;-49
2021/08/16 09:13:58;;;;;;;5.60;4.53;;;27.20;49.40;;;;;;4991464;28;20556;-48
2021/08/16 09:16:26;;;;;;;5.30;4.30;;;27.30;49.60;;;;;;4992342;28;20449;-48
2021/08/16 09:18:53;;;;;;;5.10;4.40;;;27.40;49.00;;;;;;4996362;28;21048;-46
2021/08/16 09:21:40;;;;;;;5.47;4.80;;;27.50;48.70;;;;;;4993915;28;20496;-47
2021/08/16 09:24:06;;;;;;;4.93;4.13;;;27.50;48.60;;;;;;4986097;28;20455;-50
2021/08/16 09:26:34;;;;;;;6.23;4.97;;;27.50;47.80;;;;;;4984305;28;20804;-48
2021/08/16 09:29:14;;;;;;;5.23;4.47;;;27.50;47.60;;;;;;4991347;28;20282;-47
2021/08/16 09:32:00;;;;;;;6.03;4.27;;;27.40;48.50;;;;;;4996688;28;20850;-50
2021/08/16 09:34:40;;;;;;;6.10;4.17;;;27.40;48.50;;;;;;4992569;28;21205;-50
2021/08/16 09:37:18;;;;;;;6.60;4.30;;;27.40;48.20;;;;;;4992078;28;20437;-52
2021/08/16 09:39:44;;;;;;;8.07;5.00;;;27.10;48.20;;;;;;4985783;28;20445;-52
2021/08/16 09:42:10;;;;;;;6.47;3.80;;;27.10;48.40;;;;;;4989192;28;20451;-49
2021/08/16 09:44:49;;;;;;;5.97;5.00;;;27.10;48.30;;;;;;4994666;28;20533;-51
2021/08/16 09:47:16;;;;;;;6.67;4.97;;;26.90;47.70;;;;;;4993749;28;20991;-50
2021/08/16 09:49:42;;;;;;;6.73;4.73;;;26.90;47.60;;;;;;4996372;28;20434;-51
2021/08/16 09:52:12;;;;;;;10.47;4.97;;;26.50;49.10;;;;;;4990893;28;20890;-51
2021/08/16 09:54:40;;;;;;;5.83;4.00;;;26.50;48.90;;;;;;4992239;28;20228;-51
2021/08/16 09:57:07;;;;;;;6.67;4.57;;;26.40;49.80;;;;;;4989783;28;20434;-52
2021/08/16 09:59:33;;;;;;;5.60;4.40;;;26.40;50.30;;;;;;4986004;28;20930;-49
2021/08/16 10:02:00;;;;;;;7.47;5.03;;;26.60;50.10;;;;;;4983913;28;21165;-47
2021/08/16 10:04:27;;;;;;;5.50;4.77;;;26.60;49.70;;;;;;4982660;28;20430;-49
2021/08/16 10:06:56;;;;;;;5.53;4.43;;;26.80;49.30;;;;;;4987538;28;20438;-47
2021/08/16 10:09:24;;;;;;;5.20;3.80;;;26.80;49.30;;;;;;4990868;28;20450;-49
2021/08/16 10:11:50;;;;;;;6.37;4.13;;;26.70;49.00;;;;;;4992847;28;20821;-46
2021/08/16 10:14:24;;;;;;;5.40;4.53;;;26.70;48.40;;;;;;4993550;28;20487;-48
2021/08/16 10:16:52;;;;;;;7.20;4.40;;;26.60;48.60;;;;;;4989328;28;20438;-47
2021/08/16 10:19:29;;;;;;;5.77;4.30;;;26.70;48.40;;;;;;4993942;28;20430;-46
2021/08/16 10:22:00;;;;;;;5.53;3.50;;;26.60;48.10;;;;;;4990245;28;20445;-46
2021/08/16 10:24:29;;;;;;;4.83;3.70;;;26.30;48.30;;;;;;4991699;28;20445;-46
2021/08/16 10:27:03;;;;;;;7.00;4.20;;;26.40;48.80;;;;;;4992681;28;20806;-46
2021/08/16 10:29:30;;;;;;;5.23;3.80;;;26.30;48.10;;;;;;4990835;28;20446;-51
2021/08/16 10:31:59;;;;;;;7.13;3.80;;;26.00;48.00;;;;;;4992140;28;20445;-48
2021/08/16 10:34:26;;;;;;;5.70;3.90;;;26.10;48.30;;;;;;4990669;28;20486;-50
2021/08/16 10:37:01;;;;;;;6.73;3.60;;;26.30;48.20;;;;;;4982683;28;20456;-51
2021/08/16 10:39:40;;;;;;;7.93;3.73;;;26.50;47.40;;;;;;4990518;28;20441;-49
2021/08/16 10:42:15;;;;;;;6.70;4.00;;;26.50;47.50;;;;;;4986374;28;20438;-49
2021/08/16 10:44:47;;;;;;;5.20;3.90;;;26.40;48.30;;;;;;4991970;28;20496;-47
2021/08/16 10:47:28;;;;;;;4.00;3.60;;;26.40;49.00;;;;;;4988960;28;20445;-47
2021/08/16 10:50:09;;;;;;;6.50;3.53;;;26.50;48.70;;;;;;4987604;28;20500;-48
2021/08/16 10:52:37;;;;;;;6.93;3.67;;;26.50;49.20;;;;;;4977170;28;20446;-47
2021/08/16 10:55:13;;;;;;;5.10;3.27;;;26.70;49.50;;;;;;4982289;28;20835;-48
2021/08/16 10:57:40;;;;;;;3.77;3.27;;;26.90;48.20;;;;;;4978068;28;20433;-46
2021/08/16 11:00:07;;;;;;;4.70;3.10;;;26.60;46.20;;;;;;4987599;28;20873;-47
2021/08/16 11:02:33;;;;;;;6.10;3.13;;;26.40;47.40;;;;;;4991774;28;20484;-49
2021/08/16 11:04:59;;;;;;;4.90;3.00;;;26.40;48.20;;;;;;4990253;28;20472;-48
2021/08/16 11:07:25;;;;;;;4.30;3.80;;;26.40;48.30;;;;;;4988102;28;20431;-48
2021/08/16 11:10:03;;;;;;;5.17;3.73;;;26.60;47.80;;;;;;4987360;28;20433;-48
2021/08/16 11:12:43;;;;;;;4.57;3.17;;;26.70;48.00;;;;;;4987723;28;20561;-47
2021/08/16 11:15:18;;;;;;;6.30;2.80;;;26.80;47.40;;;;;;4979606;28;20489;-50
2021/08/16 11:17:44;;;;;;;4.00;3.10;;;26.60;46.00;;;;;;4985910;28;20804;-46
2021/08/16 11:20:18;;;;;;;5.20;3.90;;;26.40;46.50;;;;;;4993182;28;20438;-47
2021/08/16 11:22:53;;;;;;;5.70;3.30;;;26.40;46.80;;;;;;4987710;28;20671;-48
2021/08/16 11:25:19;;;;;;;4.00;3.37;;;26.40;47.40;;;;;;4990739;28;20478;-48
2021/08/16 11:27:45;;;;;;;4.30;3.20;;;26.50;48.00;;;;;;4989383;28;20454;-47
2021/08/16 11:30:12;;;;;;;4.83;3.10;;;26.70;47.30;;;;;;4989371;28;20190;-47
2021/08/16 11:32:40;;;;;;;4.90;3.80;;;26.70;46.90;;;;;;4984608;28;20430;-47
2021/08/16 11:35:08;;;;;;;5.73;3.03;;;27.00;46.40;;;;;;4990830;28;20497;-49
2021/08/16 11:37:37;;;;;;;7.43;4.37;;;27.10;45.10;;;;;;4988622;28;20438;-47
2021/08/16 11:40:04;;;;;;;5.40;3.90;;;27.20;45.40;;;;;;4986610;28;20434;-46
2021/08/16 11:42:30;;;;;;;4.53;3.33;;;27.30;44.60;;;;;;4984101;28;20834;-51
2021/08/16 11:45:01;;;;;;;3.83;2.80;;;27.20;44.30;;;;;;4982000;28;20441;-48
2021/08/16 11:47:29;;;;;;;4.10;3.40;;;26.80;44.80;;;;;;4982197;28;20554;-49
2021/08/16 11:50:01;;;;;;;5.50;2.97;;;26.80;45.10;;;;;;4982099;28;21005;-49
2021/08/16 11:52:28;;;;;;;4.70;2.87;;;26.40;45.50;;;;;;4987390;28;20446;-47
2021/08/16 11:54:54;;;;;;;5.00;2.90;;;26.20;46.80;;;;;;4988289;28;20501;-49
2021/08/16 11:57:25;;;;;;;5.77;4.20;;;26.40;46.50;;;;;;4983983;28;20781;-47
2021/08/16 11:59:56;;;;;;;8.20;4.23;;;26.50;46.70;;;;;;4981057;28;20489;-46
2021/08/16 12:02:25;;;;;;;4.00;3.50;;;26.80;46.10;;;;;;4984848;28;20765;-46
2021/08/16 12:04:53;;;;;;;6.93;3.10;;;27.40;46.60;;;;;;4989793;28;20456;-47
2021/08/16 12:07:24;;;;;;;7.40;3.07;;;27.80;46.50;;;;;;4986627;28;20797;-50
2021/08/16 12:09:51;;;;;;;4.57;3.40;;;28.10;44.50;;;;;;4983865;28;20472;-50
2021/08/16 12:12:19;;;;;;;5.07;3.57;;;28.30;44.40;;;;;;4976357;28;20466;-48
2021/08/16 12:14:45;;;;;;;5.93;3.60;;;28.50;43.00;;;;;;4982272;28;20896;-46
2021/08/16 12:17:22;;;;;;;3.97;3.03;;;28.50;43.20;;;;;;4972076;28;20431;-51
2021/08/16 12:20:17;;;;;;;5.83;3.40;;;28.60;43.30;;;;;;4984348;28;20433;-47
2021/08/16 12:22:53;;;;;;;5.07;2.97;;;28.90;42.80;;;;;;4987725;28;20512;-51
2021/08/16 12:25:23;;;;;;;4.53;3.40;;;28.90;42.20;;;;;;4986834;28;20445;-49
2021/08/16 12:27:56;;;;;;;6.03;3.80;;;29.00;41.90;;;;;;4989003;28;20512;-49
2021/08/16 12:30:22;;;;;;;4.90;2.80;;;29.00;41.70;;;;;;4980765;28;20449;-50
2021/08/16 12:32:48;;;;;;;3.47;3.10;;;28.90;41.80;;;;;;4975232;28;20437;-47
2021/08/16 12:35:19;;;;;;;4.60;3.40;;;29.00;41.60;;;;;;4984518;28;20318;-46
2021/08/16 12:37:45;;;;;;;6.63;3.20;;;28.60;41.90;;;;;;4980834;28;20184;-49
2021/08/16 12:40:12;;;;;;;4.50;3.70;;;28.50;42.60;;;;;;4985620;28;20430;-46
2021/08/16 12:42:39;;;;;;;6.13;3.77;;;28.40;42.50;;;;;;4990379;28;21022;-46
2021/08/16 12:45:08;;;;;;;3.67;3.03;;;28.40;42.70;;;;;;4987508;28;20448;-49